createdAt,value
2018-01-11T00:00:59.948Z,101220.37
2018-01-11T00:02:04.466Z,101214.23
2018-01-11T00:03:08.679Z,101225.38
2018-01-11T00:04:12.896Z,101225.50
2018-01-11T00:05:17.149Z,101226.89
2018-01-11T00:06:21.720Z,101230.87
2018-01-11T00:07:25.907Z,101227.31
2018-01-11T00:08:30.166Z,101231.70
2018-01-11T00:09:35.006Z,101224.19
2018-01-11T00:10:39.954Z,101229.49
2018-01-11T00:11:44.124Z,101226.80
2018-01-11T00:12:49.867Z,101228.05
2018-01-11T00:13:54.123Z,101228.46
2018-01-11T00:14:58.443Z,101221.80
2018-01-11T00:16:04.146Z,101231.01
2018-01-11T00:17:08.323Z,101229.66
2018-01-11T00:18:12.593Z,101230.52
2018-01-11T00:19:17.109Z,101229.13
2018-01-11T00:20:21.375Z,101227.81
2018-01-11T00:21:25.715Z,101230.52
2018-01-11T00:22:30.711Z,101230.13
2018-01-11T00:23:34.921Z,101224.86
2018-01-11T00:24:39.950Z,101233.27
2018-01-11T00:25:44.139Z,101232.39
2018-01-11T00:26:48.453Z,101227.92
2018-01-11T00:27:52.638Z,101231.86
2018-01-11T00:28:56.860Z,101230.52
2018-01-11T00:30:03.109Z,101227.40
2018-01-11T00:31:08.036Z,101224.39
2018-01-11T00:32:12.897Z,101226.58
2018-01-11T00:33:17.051Z,101222.14
2018-01-11T00:34:21.282Z,101230.45
2018-01-11T00:35:25.438Z,101228.19
2018-01-11T00:36:30.560Z,101229.00
2018-01-11T00:37:34.826Z,101221.92
2018-01-11T00:38:39.412Z,101229.84
2018-01-11T00:39:43.559Z,101229.87
2018-01-11T00:40:47.753Z,101228.93
2018-01-11T00:41:51.909Z,101228.02
2018-01-11T00:42:56.179Z,101228.09
2018-01-11T00:44:00.431Z,101231.13
2018-01-11T00:45:06.982Z,101230.69
2018-01-11T00:46:11.432Z,101229.73
2018-01-11T00:47:15.621Z,101231.02
2018-01-11T00:48:19.821Z,101235.42
2018-01-11T00:49:24.054Z,101235.90
2018-01-11T00:50:28.515Z,101231.46
2018-01-11T00:51:32.762Z,101234.09
2018-01-11T00:52:36.919Z,101240.66
2018-01-11T00:53:41.255Z,101237.14
2018-01-11T00:54:45.393Z,101242.83
2018-01-11T00:55:49.608Z,101245.02
2018-01-11T00:56:54.087Z,101242.30
2018-01-11T00:57:58.322Z,101236.56
2018-01-11T00:59:02.642Z,101242.65
2018-01-11T01:00:08.197Z,101244.80
2018-01-11T01:01:12.397Z,101244.27
2018-01-11T01:02:16.560Z,101242.94
2018-01-11T01:03:21.034Z,101250.36
2018-01-11T01:04:25.379Z,101249.88
2018-01-11T01:05:29.602Z,101253.83
2018-01-11T01:06:34.095Z,101252.03
2018-01-11T01:07:39.250Z,101249.34
2018-01-11T01:08:43.552Z,101255.05
2018-01-11T01:09:48.720Z,101248.84
2018-01-11T01:10:52.943Z,101252.41
2018-01-11T01:11:57.098Z,101255.88
2018-01-11T01:13:16.993Z,101249.28
2018-01-11T01:14:33.059Z,101248.80
2018-01-11T01:18:28.296Z,101262.80
2018-01-11T01:19:32.963Z,101255.71
2018-01-11T01:20:37.113Z,101264.95
2018-01-11T01:21:42.031Z,101262.30
2018-01-11T01:22:50.006Z,101262.73
2018-01-11T01:23:54.436Z,101262.20
2018-01-11T01:24:59.406Z,101260.36
2018-01-11T01:26:06.533Z,101264.25
2018-01-11T01:27:10.807Z,101264.63
2018-01-11T01:28:22.016Z,101265.08
2018-01-11T01:30:51.972Z,101263.00
2018-01-11T01:31:56.169Z,101265.66
2018-01-11T01:33:01.987Z,101263.89
2018-01-11T01:40:06.708Z,101269.64
2018-01-11T01:41:10.991Z,101273.17
2018-01-11T01:42:27.805Z,101269.20
2018-01-11T01:43:35.719Z,101270.08
2018-01-11T01:44:40.072Z,101271.77
2018-01-11T01:45:46.644Z,101269.94
2018-01-11T01:46:54.598Z,101272.57
2018-01-11T01:48:01.190Z,101276.91
2018-01-11T01:49:05.486Z,101279.44
2018-01-11T01:50:10.420Z,101274.56
2018-01-11T01:51:16.537Z,101271.41
2018-01-11T01:52:21.133Z,101274.86
2018-01-11T01:53:25.550Z,101272.58
2018-01-11T01:54:30.368Z,101280.36
2018-01-11T01:55:35.126Z,101276.34
2018-01-11T01:56:39.930Z,101278.08
2018-01-11T01:57:44.735Z,101277.55
2018-01-11T01:58:49.051Z,101268.65
2018-01-11T01:59:53.299Z,101273.83
2018-01-11T02:00:58.393Z,101279.95
2018-01-11T02:02:03.987Z,101272.45
2018-01-11T02:03:08.920Z,101280.78
2018-01-11T02:04:14.121Z,101279.91
2018-01-11T02:05:19.085Z,101272.09
2018-01-11T02:06:24.112Z,101276.09
2018-01-11T02:07:29.808Z,101278.67
2018-01-11T02:08:34.820Z,101278.23
2018-01-11T02:09:40.903Z,101282.48
2018-01-11T02:10:46.993Z,101287.15
2018-01-11T02:11:51.843Z,101289.86
2018-01-11T02:12:56.113Z,101290.14
2018-01-11T02:14:00.917Z,101290.46
2018-01-11T02:15:06.921Z,101288.63
2018-01-11T02:19:04.976Z,101292.92
2018-01-11T02:20:09.222Z,101290.52
2018-01-11T02:21:13.459Z,101296.46
2018-01-11T02:22:17.696Z,101294.53
2018-01-11T02:23:21.816Z,101300.42
2018-01-11T02:24:26.230Z,101298.75
2018-01-11T02:25:30.359Z,101295.41
2018-01-11T02:26:34.676Z,101302.06
2018-01-11T02:27:38.909Z,101296.35
2018-01-11T02:28:43.248Z,101295.97
2018-01-11T02:29:48.265Z,101298.16
2018-01-11T02:30:52.793Z,101299.04
2018-01-11T02:31:57.076Z,101305.45
2018-01-11T02:33:01.213Z,101308.97
2018-01-11T02:34:05.455Z,101307.78
2018-01-11T02:35:09.666Z,101305.53
2018-01-11T02:36:14.627Z,101303.20
2018-01-11T02:37:19.101Z,101307.46
2018-01-11T02:38:23.289Z,101304.52
2018-01-11T02:39:27.425Z,101306.41
2018-01-11T02:40:31.590Z,101308.55
2018-01-11T02:41:35.723Z,101301.51
2018-01-11T02:42:39.870Z,101307.66
2018-01-11T02:43:44.201Z,101304.02
2018-01-11T02:44:48.385Z,101314.80
2018-01-11T02:45:52.592Z,101306.05
2018-01-11T02:46:56.838Z,101310.93
2018-01-11T02:48:01.284Z,101313.64
2018-01-11T02:49:05.555Z,101305.11
2018-01-11T02:50:10.015Z,101308.03
2018-01-11T02:51:14.149Z,101318.02
2018-01-11T02:52:18.357Z,101319.18
2018-01-11T02:53:22.642Z,101312.58
2018-01-11T02:54:26.806Z,101313.74
2018-01-11T02:55:30.978Z,101310.24
2018-01-11T02:56:35.486Z,101311.91
2018-01-11T02:57:39.742Z,101313.66
2018-01-11T02:58:43.912Z,101316.89
2018-01-11T02:59:48.650Z,101316.53
2018-01-11T03:00:52.874Z,101315.58
2018-01-11T03:01:57.005Z,101314.63
2018-01-11T03:03:01.502Z,101321.17
2018-01-11T03:04:05.724Z,101322.34
2018-01-11T03:05:09.895Z,101321.08
2018-01-11T03:06:15.244Z,101326.73
2018-01-11T03:07:19.380Z,101333.75
2018-01-11T03:08:24.213Z,101331.27
2018-01-11T03:09:28.358Z,101328.75
2018-01-11T03:10:33.670Z,101331.27
2018-01-11T03:11:37.915Z,101331.28
2018-01-11T03:12:42.192Z,101333.40
2018-01-11T03:13:46.341Z,101324.36
2018-01-11T03:14:50.448Z,101326.17
2018-01-11T03:15:54.856Z,101325.03
2018-01-11T03:16:58.993Z,101330.47
2018-01-11T03:18:03.239Z,101330.05
2018-01-11T03:19:07.479Z,101325.66
2018-01-11T03:20:11.634Z,101330.64
2018-01-11T03:21:15.755Z,101333.34
2018-01-11T03:22:20.163Z,101328.86
2018-01-11T03:23:24.428Z,101340.92
2018-01-11T03:24:28.542Z,101335.86
2018-01-11T03:25:32.646Z,101339.62
2018-01-11T03:26:36.781Z,101340.78
2018-01-11T03:27:41.814Z,101339.00
2018-01-11T03:28:45.918Z,101334.52
2018-01-11T03:29:50.064Z,101338.36
2018-01-11T03:30:54.190Z,101338.27
2018-01-11T03:31:58.438Z,101339.59
2018-01-11T03:33:02.603Z,101339.52
2018-01-11T03:34:06.853Z,101338.14
2018-01-11T03:35:12.335Z,101344.26
2018-01-11T03:36:16.454Z,101335.06
2018-01-11T03:37:20.706Z,101344.27
2018-01-11T03:38:24.897Z,101335.14
2018-01-11T03:39:29.020Z,101339.98
2018-01-11T03:40:33.171Z,101339.98
2018-01-11T03:41:37.733Z,101344.90
2018-01-11T03:42:42.540Z,101340.56
2018-01-11T03:43:47.066Z,101342.44
2018-01-11T03:44:51.185Z,101340.75
2018-01-11T03:45:55.285Z,101345.97
2018-01-11T03:46:59.472Z,101337.59
2018-01-11T03:48:03.938Z,101338.83
2018-01-11T03:49:08.154Z,101335.20
2018-01-11T03:50:12.317Z,101339.14
2018-01-11T03:51:17.316Z,101336.10
2018-01-11T03:52:21.524Z,101335.66
2018-01-11T03:53:25.705Z,101341.34
2018-01-11T03:54:29.818Z,101342.63
2018-01-11T03:55:34.075Z,101341.91
2018-01-11T03:56:38.232Z,101349.02
2018-01-11T03:57:45.268Z,101339.25
2018-01-11T03:58:49.504Z,101348.86
2018-01-11T03:59:53.677Z,101348.69
2018-01-11T04:00:59.318Z,101342.08
2018-01-11T04:02:03.450Z,101352.16
2018-01-11T04:03:07.601Z,101348.45
2018-01-11T04:04:11.792Z,101353.05
2018-01-11T04:05:15.924Z,101349.73
2018-01-11T04:06:20.052Z,101354.02
2018-01-11T04:07:24.467Z,101351.63
2018-01-11T04:08:28.596Z,101355.06
2018-01-11T04:09:32.800Z,101358.45
2018-01-11T04:10:36.937Z,101362.10
2018-01-11T04:11:41.097Z,101363.92
2018-01-11T04:12:45.232Z,101365.88
2018-01-11T04:13:49.661Z,101367.80
2018-01-11T04:19:00.188Z,101378.41
2018-01-11T04:20:12.364Z,101375.48
2018-01-11T04:21:16.562Z,101377.47
2018-01-11T04:22:21.828Z,101384.75
2018-01-11T04:23:25.988Z,101379.83
2018-01-11T04:24:30.712Z,101377.19
2018-01-11T04:25:35.804Z,101381.51
2018-01-11T04:26:40.846Z,101376.89
2018-01-11T04:27:45.335Z,101379.19
2018-01-11T04:28:49.977Z,101373.80
2018-01-11T04:29:54.171Z,101371.34
2018-01-11T04:31:01.351Z,101372.44
2018-01-11T04:32:05.497Z,101373.63
2018-01-11T04:33:09.955Z,101374.41
2018-01-11T04:34:15.749Z,101372.63
2018-01-11T04:35:20.451Z,101371.41
2018-01-11T04:36:25.807Z,101366.25
2018-01-11T04:37:30.779Z,101369.42
2018-01-11T04:38:36.345Z,101368.02
2018-01-11T04:40:51.446Z,101379.47
2018-01-11T04:41:56.742Z,101370.55
2018-01-11T04:43:00.896Z,101373.59
2018-01-11T04:44:06.752Z,101378.98
2018-01-11T04:45:14.162Z,101377.91
2018-01-11T04:46:19.926Z,101382.52
2018-01-11T04:47:24.107Z,101386.66
2018-01-11T04:48:28.728Z,101387.58
2018-01-11T04:49:33.215Z,101388.51
2018-01-11T04:50:37.430Z,101384.67
2018-01-11T04:51:42.433Z,101394.15
2018-01-11T04:52:47.396Z,101388.42
2018-01-11T04:53:52.541Z,101392.38
2018-01-11T04:54:57.763Z,101395.12
2018-01-11T04:56:02.399Z,101399.30
2018-01-11T04:57:07.342Z,101397.42
2018-01-11T04:58:13.119Z,101391.84
2018-01-11T04:59:17.270Z,101392.83
2018-01-11T05:00:23.452Z,101393.84
2018-01-11T05:01:27.829Z,101390.85
2018-01-11T05:02:32.866Z,101398.98
2018-01-11T05:03:37.487Z,101401.42
2018-01-11T05:04:43.815Z,101399.45
2018-01-11T05:05:48.054Z,101398.89
2018-01-11T05:06:52.206Z,101399.37
2018-01-11T05:07:59.274Z,101397.94
2018-01-11T05:09:03.464Z,101403.62
2018-01-11T05:11:23.206Z,101401.22
2018-01-11T05:12:27.843Z,101408.34
2018-01-11T05:13:32.101Z,101405.30
2018-01-11T05:14:36.262Z,101403.98
2018-01-11T05:15:41.370Z,101400.91
2018-01-11T05:16:45.943Z,101405.70
2018-01-11T05:17:50.091Z,101405.60
2018-01-11T05:18:54.258Z,101406.78
2018-01-11T05:19:58.383Z,101412.77
2018-01-11T05:21:02.654Z,101408.31
2018-01-11T05:22:06.925Z,101413.91
2018-01-11T05:23:12.366Z,101418.72
2018-01-11T05:24:16.561Z,101419.59
2018-01-11T05:25:20.898Z,101421.38
2018-01-11T05:26:25.402Z,101422.82
2018-01-11T05:27:29.583Z,101422.56
2018-01-11T05:28:33.722Z,101423.16
2018-01-11T05:29:38.195Z,101420.42
2018-01-11T05:30:42.736Z,101426.86
2018-01-11T05:31:46.955Z,101429.84
2018-01-11T05:32:51.136Z,101427.70
2018-01-11T05:33:55.286Z,101431.00
2018-01-11T05:35:00.173Z,101429.36
2018-01-11T05:36:06.372Z,101431.56
2018-01-11T05:37:11.154Z,101429.95
2018-01-11T05:38:15.351Z,101433.67
2018-01-11T05:39:19.669Z,101432.00
2018-01-11T05:40:23.802Z,101434.23
2018-01-11T05:41:27.936Z,101435.08
2018-01-11T05:42:32.392Z,101430.03
2018-01-11T05:43:36.546Z,101426.31
2018-01-11T05:44:41.666Z,101436.37
2018-01-11T05:45:46.031Z,101434.89
2018-01-11T05:46:50.532Z,101438.37
2018-01-11T05:47:54.682Z,101436.48
2018-01-11T05:48:59.131Z,101440.23
2018-01-11T05:50:03.509Z,101435.80
2018-01-11T05:51:07.724Z,101437.89
2018-01-11T05:52:11.928Z,101438.27
2018-01-11T05:53:16.069Z,101438.67
2018-01-11T05:54:20.310Z,101446.27
2018-01-11T05:55:24.936Z,101439.75
2018-01-11T05:56:29.161Z,101443.91
2018-01-11T05:57:33.305Z,101442.40
2018-01-11T05:58:37.483Z,101443.66
2018-01-11T05:59:42.398Z,101443.72
2018-01-11T06:00:46.878Z,101448.42
2018-01-11T06:01:51.311Z,101448.00
2018-01-11T06:02:55.514Z,101453.30
2018-01-11T06:03:59.781Z,101453.47
2018-01-11T06:05:04.012Z,101452.45
2018-01-11T06:06:08.344Z,101452.76
2018-01-11T06:07:13.447Z,101455.75
2018-01-11T06:08:18.024Z,101460.23
2018-01-11T06:09:22.203Z,101456.44
2018-01-11T06:10:26.438Z,101454.44
2018-01-11T06:11:30.713Z,101463.34
2018-01-11T06:12:34.845Z,101465.98
2018-01-11T06:13:38.994Z,101463.34
2018-01-11T06:14:43.520Z,101459.51
2018-01-11T06:15:47.817Z,101461.70
2018-01-11T06:16:52.484Z,101454.97
2018-01-11T06:17:56.750Z,101466.04
2018-01-11T06:19:01.019Z,101464.88
2018-01-11T06:20:05.163Z,101464.13
2018-01-11T06:21:09.472Z,101468.34
2018-01-11T06:22:14.614Z,101468.67
2018-01-11T06:23:18.790Z,101467.69
2018-01-11T06:24:23.770Z,101477.70
2018-01-11T06:25:27.992Z,101482.33
2018-01-11T06:26:32.545Z,101482.08
2018-01-11T06:27:36.789Z,101481.74
2018-01-11T06:28:41.745Z,101483.07
2018-01-11T06:29:45.987Z,101480.69
2018-01-11T06:30:50.542Z,101484.14
2018-01-11T06:31:55.282Z,101489.48
2018-01-11T06:32:59.815Z,101489.24
2018-01-11T06:34:04.021Z,101490.50
2018-01-11T06:35:08.195Z,101491.86
2018-01-11T06:36:12.441Z,101496.83
2018-01-11T06:37:17.036Z,101493.30
2018-01-11T06:38:21.210Z,101493.00
2018-01-11T06:39:25.715Z,101500.88
2018-01-11T06:40:29.867Z,101500.15
2018-01-11T06:41:34.093Z,101494.92
2018-01-11T06:42:38.295Z,101496.66
2018-01-11T06:43:42.479Z,101502.05
2018-01-11T06:44:46.624Z,101502.92
2018-01-11T06:45:51.191Z,101507.13
2018-01-11T06:46:55.799Z,101508.21
2018-01-11T06:48:00.951Z,101516.80
2018-01-11T06:49:05.107Z,101514.55
2018-01-11T06:50:09.299Z,101512.36
2018-01-11T06:51:14.278Z,101516.27
2018-01-11T06:52:18.866Z,101519.78
2018-01-11T06:53:23.061Z,101521.56
2018-01-11T06:54:27.287Z,101520.97
2018-01-11T06:55:31.545Z,101522.06
2018-01-11T06:56:35.757Z,101524.59
2018-01-11T06:57:41.366Z,101530.67
2018-01-11T06:58:45.514Z,101528.14
2018-01-11T06:59:49.749Z,101535.75
2018-01-11T07:00:54.138Z,101533.23
2018-01-11T07:01:58.359Z,101532.72
2018-01-11T07:03:02.794Z,101536.48
2018-01-11T07:04:07.499Z,101535.17
2018-01-11T07:05:11.698Z,101536.02
2018-01-11T07:06:16.492Z,101539.57
2018-01-11T07:07:20.667Z,101540.98
2018-01-11T07:08:24.844Z,101542.74
2018-01-11T07:09:28.990Z,101536.64
2018-01-11T07:10:33.518Z,101539.81
2018-01-11T07:11:38.298Z,101540.97
2018-01-11T07:12:43.086Z,101541.42
2018-01-11T07:13:47.443Z,101541.97
2018-01-11T07:14:51.552Z,101545.58
2018-01-11T07:15:55.755Z,101546.18
2018-01-11T07:16:59.900Z,101552.47
2018-01-11T07:18:04.018Z,101558.00
2018-01-11T07:19:08.386Z,101558.05
2018-01-11T07:20:12.569Z,101563.03
2018-01-11T07:21:16.750Z,101559.00
2018-01-11T07:22:20.898Z,101568.42
2018-01-11T07:23:25.456Z,101561.50
2018-01-11T07:24:29.699Z,101566.42
2018-01-11T07:25:33.900Z,101564.89
2018-01-11T07:26:38.117Z,101568.23
2018-01-11T07:27:43.260Z,101569.98
2018-01-11T07:28:47.420Z,101567.00
2018-01-11T07:29:51.954Z,101572.58
2018-01-11T07:30:56.368Z,101568.64
2018-01-11T07:32:00.577Z,101571.61
2018-01-11T07:33:04.844Z,101572.17
2018-01-11T07:34:09.042Z,101576.52
2018-01-11T07:35:14.054Z,101571.89
2018-01-11T07:36:18.589Z,101573.02
2018-01-11T07:37:22.733Z,101571.61
2018-01-11T07:38:26.919Z,101579.21
2018-01-11T07:39:31.064Z,101575.00
2018-01-11T07:40:35.273Z,101574.33
2018-01-11T07:41:39.550Z,101582.30
2018-01-11T07:42:44.023Z,101573.53
2018-01-11T07:43:48.192Z,101587.35
2018-01-11T07:44:52.427Z,101576.04
2018-01-11T07:45:56.761Z,101581.93
2018-01-11T07:47:01.376Z,101585.11
2018-01-11T07:48:05.870Z,101589.00
2018-01-11T07:49:10.002Z,101589.54
2018-01-11T07:50:14.735Z,101603.46
2018-01-11T07:51:18.986Z,101605.95
2018-01-11T07:52:23.220Z,101612.17
2018-01-11T07:53:27.459Z,101617.13
2018-01-11T07:54:31.978Z,101622.48
2018-01-11T07:55:36.171Z,101610.64
2018-01-11T07:56:41.282Z,101609.89
2018-01-11T07:57:45.455Z,101621.32
2018-01-11T07:58:49.586Z,101617.63
2018-01-11T07:59:53.732Z,101613.86
2018-01-11T08:00:58.506Z,101618.62
2018-01-11T08:02:02.962Z,101625.05
2018-01-11T08:03:07.159Z,101632.49
2018-01-11T08:04:11.395Z,101626.63
2018-01-11T08:05:16.139Z,101625.09
2018-01-11T08:06:20.483Z,101621.45
2018-01-11T08:07:25.690Z,101628.08
2018-01-11T08:08:29.901Z,101621.26
2018-01-11T08:09:34.066Z,101622.52
2018-01-11T08:10:38.239Z,101631.17
2018-01-11T08:11:42.521Z,101629.67
2018-01-11T08:12:46.787Z,101627.02
2018-01-11T08:13:51.346Z,101639.03
2018-01-11T08:14:55.618Z,101634.05
2018-01-11T08:16:00.233Z,101646.34
2018-01-11T08:17:04.419Z,101657.21
2018-01-11T08:18:09.011Z,101646.88
2018-01-11T08:19:13.443Z,101658.05
2018-01-11T08:20:18.562Z,101653.09
2018-01-11T08:21:22.800Z,101656.34
2018-01-11T08:22:26.995Z,101658.92
2018-01-11T08:23:31.311Z,101656.61
2018-01-11T08:24:35.463Z,101663.03
2018-01-11T08:25:40.548Z,101658.06
2018-01-11T08:26:45.116Z,101664.45
2018-01-11T08:27:49.658Z,101662.12
2018-01-11T08:28:53.902Z,101662.44
2018-01-11T08:29:58.155Z,101663.38
2018-01-11T08:31:03.462Z,101674.61
2018-01-11T08:32:08.482Z,101676.19
2018-01-11T08:33:13.280Z,101673.53
2018-01-11T08:34:17.579Z,101676.30
2018-01-11T08:35:21.780Z,101678.73
2018-01-11T08:36:26.086Z,101670.36
2018-01-11T08:37:30.373Z,101670.53
2018-01-11T08:38:34.558Z,101671.06
2018-01-11T08:39:41.923Z,101678.67
2018-01-11T08:40:46.165Z,101672.22
2018-01-11T08:41:50.382Z,101677.59
2018-01-11T08:42:54.622Z,101677.13
2018-01-11T08:43:58.816Z,101677.78
2018-01-11T08:45:05.095Z,101676.95
2018-01-11T08:46:10.201Z,101677.37
2018-01-11T08:47:15.678Z,101678.25
2018-01-11T08:48:19.797Z,101670.96
2018-01-11T08:49:24.033Z,101676.94
2018-01-11T08:50:28.258Z,101677.00
2018-01-11T08:51:32.569Z,101676.92
2018-01-11T08:52:36.758Z,101676.45
2018-01-11T08:53:41.002Z,101678.03
2018-01-11T08:54:45.173Z,101676.50
2018-01-11T08:55:49.456Z,101678.94
2018-01-11T08:56:53.650Z,101680.14
2018-01-11T08:57:57.962Z,101682.42
2018-01-11T08:59:02.314Z,101677.98
2018-01-11T09:00:08.051Z,101680.57
2018-01-11T09:01:12.217Z,101683.66
2018-01-11T09:02:16.414Z,101692.06
2018-01-11T09:03:20.770Z,101689.09
2018-01-11T09:04:25.304Z,101692.98
2018-01-11T09:05:29.471Z,101684.39
2018-01-11T09:06:33.851Z,101682.70
2018-01-11T09:07:38.850Z,101687.86
2018-01-11T09:08:43.055Z,101693.70
2018-01-11T09:09:47.285Z,101695.22
2018-01-11T09:10:51.870Z,101695.66
2018-01-11T09:11:56.054Z,101697.95
2018-01-11T09:13:00.294Z,101702.91
2018-01-11T09:14:04.556Z,101704.43
2018-01-11T09:15:08.888Z,101707.55
2018-01-11T09:16:13.457Z,101709.81
2018-01-11T09:17:18.416Z,101716.84
2018-01-11T09:18:22.982Z,101714.83
2018-01-11T09:19:27.604Z,101717.22
2018-01-11T09:20:32.629Z,101719.42
2018-01-11T09:21:36.854Z,101718.59
2018-01-11T09:22:41.130Z,101718.67
2018-01-11T09:23:45.610Z,101718.08
2018-01-11T09:24:49.855Z,101712.91
2018-01-11T09:25:54.879Z,101717.80
2018-01-11T09:26:59.134Z,101712.28
2018-01-11T09:28:03.329Z,101709.25
2018-01-11T09:29:07.829Z,101717.11
2018-01-11T09:30:13.968Z,101718.42
2018-01-11T09:31:18.440Z,101715.18
2018-01-11T09:32:22.850Z,101720.64
2018-01-11T09:33:27.872Z,101725.12
2018-01-11T09:34:32.059Z,101723.88
2018-01-11T09:35:36.660Z,101722.87
2018-01-11T09:36:41.719Z,101729.85
2018-01-11T09:37:45.882Z,101725.63
2018-01-11T09:38:50.142Z,101722.72
2018-01-11T09:39:55.252Z,101712.67
2018-01-11T09:40:59.442Z,101708.09
2018-01-11T09:42:03.961Z,101719.17
2018-01-11T09:43:08.275Z,101721.91
2018-01-11T09:44:12.538Z,101722.06
2018-01-11T09:45:16.768Z,101719.73
2018-01-11T09:46:20.980Z,101732.63
2018-01-11T09:47:25.146Z,101733.22
2018-01-11T09:48:29.542Z,101731.80
2018-01-11T09:49:33.802Z,101734.78
2018-01-11T09:50:38.655Z,101729.09
2018-01-11T09:51:42.842Z,101728.00
2018-01-11T09:52:47.024Z,101730.59
2018-01-11T09:53:51.285Z,101730.09
2018-01-11T09:54:55.783Z,101739.49
2018-01-11T09:56:00.123Z,101729.42
2018-01-11T09:57:04.987Z,101738.70
2018-01-11T09:58:09.187Z,101732.25
2018-01-11T09:59:13.539Z,101736.98
2018-01-11T10:00:18.202Z,101731.69
2018-01-11T10:01:22.928Z,101735.83
2018-01-11T10:02:27.243Z,101739.31
2018-01-11T10:03:31.427Z,101737.73
2018-01-11T10:04:35.775Z,101734.30
2018-01-11T10:05:40.937Z,101733.38
2018-01-11T10:06:45.196Z,101740.27
2018-01-11T10:07:49.796Z,101735.93
2018-01-11T10:08:54.016Z,101738.10
2018-01-11T10:09:58.209Z,101739.61
2018-01-11T10:11:02.447Z,101735.58
2018-01-11T10:12:06.634Z,101747.45
2018-01-11T10:13:10.772Z,101744.05
2018-01-11T10:14:15.383Z,101742.22
2018-01-11T10:15:19.762Z,101742.83
2018-01-11T10:16:24.061Z,101744.15
2018-01-11T10:17:28.278Z,101746.63
2018-01-11T10:18:32.555Z,101750.55
2018-01-11T10:19:37.186Z,101749.22
2018-01-11T10:20:41.914Z,101748.38
2018-01-11T10:21:46.315Z,101749.80
2018-01-11T10:22:50.562Z,101748.44
2018-01-11T10:23:54.783Z,101751.13
2018-01-11T10:24:59.084Z,101747.99
2018-01-11T10:26:04.655Z,101751.48
2018-01-11T10:27:08.960Z,101753.73
2018-01-11T10:28:13.250Z,101751.97
2018-01-11T10:29:17.705Z,101756.08
2018-01-11T10:30:22.762Z,101758.23
2018-01-11T10:31:26.919Z,101758.83
2018-01-11T10:32:31.735Z,101755.03
2018-01-11T10:33:35.988Z,101757.67
2018-01-11T10:34:41.047Z,101758.39
2018-01-11T10:35:45.349Z,101764.00
2018-01-11T10:36:49.608Z,101762.53
2018-01-11T10:37:53.858Z,101760.76
2018-01-11T10:38:58.348Z,101763.91
2018-01-11T10:40:02.968Z,101764.63
2018-01-11T10:41:07.159Z,101763.89
2018-01-11T10:42:11.482Z,101762.70
2018-01-11T10:43:15.705Z,101754.41
2018-01-11T10:44:20.666Z,101751.43
2018-01-11T10:45:25.342Z,101752.47
2018-01-11T10:46:29.528Z,101754.34
2018-01-11T10:47:33.881Z,101756.55
2018-01-11T10:48:38.040Z,101758.06
2018-01-11T10:49:43.066Z,101761.30
2018-01-11T10:50:47.326Z,101753.88
2018-01-11T10:51:51.852Z,101746.00
2018-01-11T10:52:56.299Z,101754.45
2018-01-11T10:54:00.562Z,101747.86
2018-01-11T10:55:04.984Z,101752.30
2018-01-11T10:56:09.381Z,101758.48
2018-01-11T10:57:13.540Z,101760.26
2018-01-11T10:58:18.192Z,101760.27
2018-01-11T10:59:22.335Z,101754.02
2018-01-11T11:00:30.598Z,101754.92
2018-01-11T11:01:38.964Z,101754.95
2018-01-11T11:02:57.384Z,101755.40
2018-01-11T11:04:02.068Z,101755.37
2018-01-11T11:05:06.389Z,101758.38
2018-01-11T11:06:10.607Z,101749.92
2018-01-11T11:07:14.852Z,101754.36
2018-01-11T11:08:19.028Z,101754.82
2018-01-11T11:09:23.340Z,101751.67
2018-01-11T11:10:27.896Z,101751.25
2018-01-11T11:11:32.140Z,101751.20
2018-01-11T11:12:36.313Z,101756.50
2018-01-11T11:13:40.481Z,101755.14
2018-01-11T11:14:44.841Z,101757.80
2018-01-11T11:15:49.442Z,101759.39
2018-01-11T11:16:54.125Z,101760.53
2018-01-11T11:17:58.374Z,101762.31
2018-01-11T11:19:02.602Z,101758.33
2018-01-11T11:20:06.924Z,101759.86
2018-01-11T11:21:11.273Z,101760.69
2018-01-11T11:22:15.503Z,101756.39
2018-01-11T11:23:20.029Z,101759.35
2018-01-11T11:24:24.350Z,101760.30
2018-01-11T11:25:28.624Z,101762.26
2018-01-11T11:26:32.878Z,101752.48
2018-01-11T11:27:37.194Z,101762.95
2018-01-11T11:28:42.198Z,101754.66
2018-01-11T11:29:46.534Z,101758.90
2018-01-11T11:30:51.302Z,101757.33
2018-01-11T11:31:55.563Z,101763.67
2018-01-11T11:32:59.830Z,101761.88
2018-01-11T11:34:04.188Z,101769.30
2018-01-11T11:35:08.403Z,101767.99
2018-01-11T11:36:12.962Z,101765.91
2018-01-11T11:37:17.396Z,101772.25
2018-01-11T11:38:21.630Z,101767.93
2018-01-11T11:39:25.922Z,101773.11
2018-01-11T11:40:30.075Z,101768.59
2018-01-11T11:41:34.235Z,101762.72
2018-01-11T11:42:38.864Z,101767.56
2018-01-11T11:43:43.846Z,101760.39
2018-01-11T11:44:48.127Z,101762.03
2018-01-11T11:45:52.511Z,101762.70
2018-01-11T11:46:56.897Z,101758.33
2018-01-11T11:48:01.331Z,101762.17
2018-01-11T11:49:06.435Z,101759.11
2018-01-11T11:50:10.787Z,101762.94
2018-01-11T11:51:15.037Z,101764.14
2018-01-11T11:52:19.293Z,101772.76
2018-01-11T11:53:23.498Z,101768.30
2018-01-11T11:54:28.118Z,101767.70
2018-01-11T11:56:36.785Z,101769.47
2018-01-11T11:57:41.002Z,101771.97
2018-01-11T11:58:45.341Z,101775.02
2018-01-11T11:59:49.486Z,101774.52
2018-01-11T12:00:54.818Z,101771.33
2018-01-11T12:01:59.239Z,101775.64
2018-01-11T12:03:03.621Z,101773.19
2018-01-11T12:04:08.482Z,101771.77
2018-01-11T12:05:12.690Z,101765.14
2018-01-11T12:06:17.036Z,101776.14
2018-01-11T12:07:21.598Z,101770.40
2018-01-11T12:08:25.782Z,101770.03
2018-01-11T12:09:30.185Z,101768.91
2018-01-11T12:10:34.410Z,101769.69
2018-01-11T12:11:38.671Z,101765.77
2018-01-11T12:12:44.093Z,101766.89
2018-01-11T12:13:49.673Z,101769.50
2018-01-11T12:14:53.935Z,101767.61
2018-01-11T12:15:59.272Z,101764.44
2018-01-11T12:17:03.503Z,101772.41
2018-01-11T12:18:08.374Z,101761.83
2018-01-11T12:19:12.635Z,101763.66
2018-01-11T12:20:17.469Z,101759.02
2018-01-11T12:21:22.263Z,101758.55
2018-01-11T12:22:26.565Z,101762.89
2018-01-11T12:23:30.809Z,101772.25
2018-01-11T12:24:35.141Z,101763.50
2018-01-11T12:25:39.396Z,101765.31
2018-01-11T12:26:44.476Z,101775.30
2018-01-11T12:28:47.899Z,101768.52
2018-01-11T12:29:52.207Z,101774.66
2018-01-11T12:30:56.668Z,101782.08
2018-01-11T12:32:01.013Z,101781.52
2018-01-11T12:33:06.269Z,101782.00
2018-01-11T12:34:12.424Z,101779.97
2018-01-11T12:35:16.679Z,101783.23
2018-01-11T12:36:20.967Z,101780.73
2018-01-11T12:37:25.287Z,101782.58
2018-01-11T12:38:29.497Z,101785.30
2018-01-11T12:39:34.184Z,101786.81